Time;durP1;ratioP1;P1;durP2;ratioP2;P2;SDS_P1;SDS_P2;PMS_P1;PMS_P2;Temp;Humidity;BMP_temperature;BMP_pressure;BME280_temperature;BME280_humidity;BME280_pressure;Samples;Min_cycle;Max_cycle;Signal;HPM_P1;HPM_P2
2022/08/24 00:01:45;;;;;;;3.70;1.70;;;16.10;96.10;;;;;;5053174;28;20181;-68
2022/08/24 00:04:11;;;;;;;2.87;1.80;;;16.20;96.10;;;;;;5053892;28;20561;-68
2022/08/24 00:06:36;;;;;;;3.10;1.40;;;16.20;95.80;;;;;;5053916;28;20177;-68
2022/08/24 00:09:02;;;;;;;4.00;2.03;;;16.10;96.00;;;;;;5053740;28;20170;-68
2022/08/24 00:11:28;;;;;;;4.17;1.67;;;16.10;96.20;;;;;;5053459;28;20173;-68
2022/08/24 00:13:54;;;;;;;4.20;1.60;;;16.00;96.50;;;;;;5054132;28;20504;-68
2022/08/24 00:16:20;;;;;;;14.20;2.03;;;16.00;96.70;;;;;;5053891;28;20386;-68
2022/08/24 00:18:47;;;;;;;10.33;2.37;;;15.90;96.90;;;;;;5053759;28;20182;-68
2022/08/24 00:21:13;;;;;;;4.27;2.40;;;15.90;97.00;;;;;;5053502;28;20524;-69
2022/08/24 00:23:39;;;;;;;3.93;1.90;;;15.80;97.20;;;;;;5053698;28;20491;-68
2022/08/24 00:26:05;;;;;;;4.80;2.17;;;15.80;97.20;;;;;;5053777;28;20462;-68
2022/08/24 00:28:31;;;;;;;4.43;2.20;;;15.80;97.50;;;;;;5053663;28;20213;-68
2022/08/24 00:30:57;;;;;;;5.77;2.57;;;15.70;97.70;;;;;;5053238;28;20400;-68
2022/08/24 00:33:23;;;;;;;5.17;1.90;;;15.70;97.90;;;;;;5052388;28;20920;-68
2022/08/24 00:35:49;;;;;;;4.23;2.07;;;15.70;98.20;;;;;;5053380;28;20189;-68
2022/08/24 00:38:14;;;;;;;2.80;1.73;;;15.70;97.90;;;;;;5053306;28;20174;-68
2022/08/24 00:40:45;;;;;;;3.40;1.70;;;15.70;98.20;;;;;;5053470;28;20182;-68
2022/08/24 00:43:11;;;;;;;2.60;1.93;;;15.60;98.40;;;;;;5052930;28;20198;-69
2022/08/24 00:45:45;;;;;;;7.13;2.07;;;15.60;98.50;;;;;;5053110;28;20555;-68
2022/08/24 00:48:24;;;;;;;3.30;1.70;;;15.50;98.90;;;;;;5053087;28;20174;-68
2022/08/24 00:50:59;;;;;;;8.43;2.37;;;15.50;99.10;;;;;;5053138;28;20861;-68
2022/08/24 00:53:33;;;;;;;6.40;1.93;;;15.50;99.10;;;;;;5053069;28;20518;-69
2022/08/24 00:56:05;;;;;;;4.87;1.80;;;15.50;99.00;;;;;;5053031;28;20893;-68
2022/08/24 00:58:40;;;;;;;3.63;1.80;;;15.50;99.00;;;;;;5052870;28;20428;-68
2022/08/24 01:01:08;;;;;;;3.50;2.23;;;15.50;99.00;;;;;;5052331;28;20427;-68
2022/08/24 01:03:36;;;;;;;4.47;2.37;;;15.50;98.80;;;;;;5052454;28;20460;-68
2022/08/24 01:06:02;;;;;;;3.60;1.90;;;15.50;99.10;;;;;;5052139;28;20440;-68
2022/08/24 01:08:28;;;;;;;3.23;1.70;;;15.40;99.30;;;;;;5052785;28;20416;-68
2022/08/24 01:11:11;;;;;;;5.37;1.97;;;15.40;99.50;;;;;;5052377;28;20444;-68
2022/08/24 01:13:37;;;;;;;8.20;2.33;;;15.40;99.40;;;;;;5052808;28;20161;-68
2022/08/24 01:16:05;;;;;;;4.23;1.87;;;15.40;99.60;;;;;;5052461;28;20416;-68
2022/08/24 01:18:49;;;;;;;2.73;1.60;;;15.40;99.70;;;;;;5052549;28;20419;-68
2022/08/24 01:21:23;;;;;;;3.73;2.17;;;15.40;99.50;;;;;;5052018;28;20396;-68
2022/08/24 01:23:56;;;;;;;3.83;2.03;;;15.40;99.70;;;;;;5052430;28;20952;-68
2022/08/24 01:26:39;;;;;;;2.67;1.67;;;15.30;99.90;;;;;;5052360;28;20420;-68
2022/08/24 01:29:09;;;;;;;7.63;2.47;;;15.30;99.90;;;;;;5052470;28;20907;-68
2022/08/24 01:31:35;;;;;;;5.50;1.80;;;15.20;99.90;;;;;;5050761;28;20436;-68
2022/08/24 01:34:01;;;;;;;4.80;2.30;;;15.20;99.90;;;;;;5052364;28;21002;-68
2022/08/24 01:36:45;;;;;;;4.07;2.30;;;15.10;99.90;;;;;;5052361;28;20673;-68
2022/08/24 01:39:20;;;;;;;3.10;1.93;;;15.10;99.90;;;;;;5052420;28;20169;-68
2022/08/24 01:41:47;;;;;;;3.97;1.80;;;15.00;99.90;;;;;;5051925;28;20412;-68
2022/08/24 01:44:13;;;;;;;2.60;1.63;;;15.00;99.90;;;;;;5052172;28;20481;-68
2022/08/24 01:46:43;;;;;;;2.70;1.70;;;14.90;99.90;;;;;;5052265;28;20479;-68
2022/08/24 01:49:09;;;;;;;2.53;1.70;;;14.90;99.90;;;;;;5052291;28;20431;-68
2022/08/24 01:51:36;;;;;;;3.77;1.93;;;14.80;99.90;;;;;;5052225;28;20404;-69
2022/08/24 01:54:02;;;;;;;4.93;2.40;;;14.80;99.90;;;;;;5052618;28;20542;-68
2022/08/24 01:56:29;;;;;;;3.33;2.00;;;14.80;99.90;;;;;;5052151;28;20737;-69
2022/08/24 01:58:56;;;;;;;3.07;1.93;;;14.80;99.90;;;;;;5052322;28;20783;-68
2022/08/24 02:01:22;;;;;;;4.70;2.50;;;14.80;99.90;;;;;;5051785;28;20877;-68
2022/08/24 02:03:48;;;;;;;4.03;2.30;;;14.80;99.90;;;;;;5052001;28;20452;-68
2022/08/24 02:06:17;;;;;;;6.90;1.87;;;14.80;99.90;;;;;;5051957;28;20414;-68
2022/08/24 02:08:43;;;;;;;3.93;1.93;;;14.80;99.90;;;;;;5052017;28;20231;-68
2022/08/24 02:11:09;;;;;;;5.07;2.60;;;14.80;99.90;;;;;;5051413;28;20877;-68
2022/08/24 02:13:37;;;;;;;5.50;1.90;;;14.80;99.90;;;;;;5051935;28;20742;-68
2022/08/24 02:16:04;;;;;;;4.20;2.40;;;14.80;99.90;;;;;;5052156;28;20451;-68
2022/08/24 02:18:32;;;;;;;3.10;2.00;;;14.80;99.90;;;;;;5055410;28;20438;-68
2022/08/24 02:20:58;;;;;;;3.47;1.73;;;14.80;99.90;;;;;;5055751;28;20414;-68
2022/08/24 02:23:23;;;;;;;4.27;1.73;;;14.80;99.90;;;;;;5055536;28;20540;-68
2022/08/24 02:25:49;;;;;;;5.27;2.83;;;14.80;99.90;;;;;;5055896;28;21017;-68
2022/08/24 02:28:15;;;;;;;2.80;1.83;;;14.70;99.90;;;;;;5055834;28;20172;-68
2022/08/24 02:30:41;;;;;;;2.93;1.70;;;14.70;99.90;;;;;;5055616;28;20625;-68
2022/08/24 02:33:07;;;;;;;5.20;1.90;;;14.80;99.90;;;;;;5054134;28;20257;-68
2022/08/24 02:35:33;;;;;;;4.90;2.00;;;14.70;99.90;;;;;;5055737;28;20215;-68
2022/08/24 02:37:59;;;;;;;3.10;2.17;;;14.80;99.90;;;;;;5055403;28;20441;-68
2022/08/24 02:40:25;;;;;;;3.27;1.57;;;14.70;99.90;;;;;;5055590;28;20404;-68
2022/08/24 02:42:51;;;;;;;3.10;1.90;;;14.60;99.90;;;;;;5054900;28;20452;-68
2022/08/24 02:45:18;;;;;;;4.50;1.67;;;14.60;99.90;;;;;;5055343;28;20415;-68
2022/08/24 02:47:44;;;;;;;2.83;1.77;;;14.60;99.90;;;;;;5055459;28;20427;-68
2022/08/24 02:50:13;;;;;;;3.40;2.27;;;14.50;99.90;;;;;;5040885;28;21098;-68
2022/08/24 02:52:40;;;;;;;3.70;2.00;;;14.40;99.90;;;;;;5034886;28;20198;-68
2022/08/24 02:55:08;;;;;;;4.53;1.63;;;14.30;99.90;;;;;;5035321;28;20426;-68
2022/08/24 02:57:34;;;;;;;8.00;2.27;;;14.20;99.90;;;;;;5052566;28;20502;-68
2022/08/24 02:59:59;;;;;;;3.70;1.97;;;14.10;99.90;;;;;;5055234;28;20503;-68
2022/08/24 03:02:25;;;;;;;4.70;2.50;;;14.20;99.90;;;;;;5054559;28;20174;-68
2022/08/24 03:04:52;;;;;;;6.77;2.67;;;14.20;99.90;;;;;;5054845;28;20170;-68
2022/08/24 03:07:18;;;;;;;4.07;2.17;;;14.20;99.90;;;;;;5055040;28;20768;-68
2022/08/24 03:09:43;;;;;;;4.90;2.33;;;14.20;99.90;;;;;;5054982;28;20408;-68
2022/08/24 03:12:10;;;;;;;4.60;3.13;;;14.30;99.90;;;;;;5053736;28;20404;-68
2022/08/24 03:14:36;;;;;;;4.13;2.27;;;14.20;99.90;;;;;;5054231;28;20170;-68
2022/08/24 03:17:02;;;;;;;6.47;2.30;;;14.20;99.90;;;;;;5054222;28;20422;-68
2022/08/24 03:19:28;;;;;;;6.67;3.00;;;14.10;99.90;;;;;;5054187;28;20203;-68
2022/08/24 03:21:54;;;;;;;3.73;2.33;;;14.10;99.90;;;;;;5053910;28;20408;-68
2022/08/24 03:24:20;;;;;;;5.10;2.73;;;14.10;99.90;;;;;;5053945;28;20707;-68
2022/08/24 03:26:46;;;;;;;3.10;2.20;;;14.20;99.90;;;;;;5054821;28;20206;-67
2022/08/24 03:29:12;;;;;;;5.30;2.30;;;14.20;99.90;;;;;;5054365;28;20439;-68
2022/08/24 03:31:38;;;;;;;4.00;2.00;;;14.10;99.90;;;;;;5053380;28;20588;-67
2022/08/24 03:34:04;;;;;;;5.27;2.67;;;14.10;99.90;;;;;;5054495;28;20447;-68
2022/08/24 03:36:29;;;;;;;3.83;2.20;;;14.00;99.90;;;;;;5054636;28;20174;-67
2022/08/24 03:38:55;;;;;;;5.23;2.10;;;14.00;99.90;;;;;;5053298;28;20180;-67
2022/08/24 03:41:21;;;;;;;6.53;2.37;;;14.00;99.90;;;;;;5054332;28;20178;-67
2022/08/24 03:43:49;;;;;;;4.27;2.17;;;14.00;99.90;;;;;;5054185;28;20201;-67
2022/08/24 03:46:20;;;;;;;2.70;1.90;;;14.00;99.90;;;;;;5054306;28;20592;-67
2022/08/24 03:48:47;;;;;;;3.93;1.70;;;14.00;99.90;;;;;;5054262;28;20432;-68
2022/08/24 03:51:15;;;;;;;3.90;1.83;;;13.90;99.90;;;;;;5053719;28;20484;-68
2022/08/24 03:53:41;;;;;;;7.93;3.00;;;13.90;99.90;;;;;;5054120;28;20424;-67
2022/08/24 03:56:07;;;;;;;4.70;2.20;;;13.90;99.90;;;;;;5054108;28;20461;-67
2022/08/24 03:58:37;;;;;;;7.00;2.20;;;13.90;99.90;;;;;;5053803;28;20412;-67
2022/08/24 04:01:04;;;;;;;5.30;2.40;;;14.00;99.90;;;;;;5053582;28;20412;-68
2022/08/24 04:03:35;;;;;;;4.00;2.40;;;13.90;99.90;;;;;;5054009;28;20554;-67
2022/08/24 04:06:01;;;;;;;5.70;2.20;;;13.90;99.90;;;;;;5053984;28;20798;-67
2022/08/24 04:08:27;;;;;;;2.70;1.60;;;13.90;99.90;;;;;;5053970;28;20415;-67
2022/08/24 04:10:53;;;;;;;4.07;2.50;;;13.90;99.90;;;;;;5053656;28;20174;-68
2022/08/24 04:13:19;;;;;;;5.23;1.97;;;13.80;99.90;;;;;;5053456;28;20688;-68
2022/08/24 04:15:45;;;;;;;2.80;1.87;;;13.80;99.90;;;;;;5053953;28;20416;-67
2022/08/24 04:18:11;;;;;;;5.90;2.53;;;13.80;99.90;;;;;;5053820;28;20264;-68
2022/08/24 04:20:39;;;;;;;4.00;2.00;;;13.80;99.90;;;;;;5053599;28;20809;-67
2022/08/24 04:23:06;;;;;;;3.73;2.23;;;13.70;99.90;;;;;;5053205;28;20455;-67
2022/08/24 04:25:44;;;;;;;3.80;1.70;;;13.70;99.90;;;;;;5053512;28;20411;-67
2022/08/24 04:28:12;;;;;;;4.20;2.10;;;13.70;99.90;;;;;;5053509;28;20814;-68
2022/08/24 04:30:42;;;;;;;4.00;2.50;;;13.70;99.90;;;;;;5053437;28;20415;-68
2022/08/24 04:33:10;;;;;;;6.40;2.03;;;13.70;99.90;;;;;;5051856;28;20420;-68
2022/08/24 04:35:41;;;;;;;10.03;3.27;;;13.60;99.90;;;;;;5053148;28;20415;-67
2022/08/24 04:38:07;;;;;;;4.60;2.33;;;13.60;99.90;;;;;;5051937;28;20511;-67
2022/08/24 04:40:33;;;;;;;4.07;2.33;;;13.50;99.90;;;;;;5052453;28;20412;-67
2022/08/24 04:43:00;;;;;;;10.23;2.97;;;13.50;99.90;;;;;;5052811;28;20452;-67
2022/08/24 04:45:27;;;;;;;3.10;1.93;;;13.50;99.90;;;;;;5053337;28;20408;-67
2022/08/24 04:47:53;;;;;;;8.73;2.70;;;13.50;99.90;;;;;;5053367;28;20412;-67
2022/08/24 04:50:18;;;;;;;4.83;1.97;;;13.50;99.90;;;;;;5053193;28;20420;-67
2022/08/24 04:52:44;;;;;;;7.67;3.00;;;13.50;99.90;;;;;;5052534;28;20201;-67
2022/08/24 04:55:09;;;;;;;4.77;2.67;;;13.50;99.90;;;;;;5053379;28;20208;-67
2022/08/24 04:57:35;;;;;;;4.57;2.50;;;13.60;99.90;;;;;;5053286;28;20642;-67
2022/08/24 05:00:02;;;;;;;12.30;3.20;;;13.60;99.90;;;;;;5052965;28;20551;-67
2022/08/24 05:02:28;;;;;;;9.87;2.97;;;13.70;99.90;;;;;;5052623;28;20583;-67
2022/08/24 05:04:55;;;;;;;3.40;2.50;;;13.80;99.90;;;;;;5052989;28;20492;-67
2022/08/24 05:07:21;;;;;;;5.60;2.47;;;13.80;99.90;;;;;;5052749;28;20412;-67
2022/08/24 05:09:47;;;;;;;5.00;2.77;;;13.80;99.90;;;;;;5052622;28;20420;-67
2022/08/24 05:12:13;;;;;;;5.00;2.10;;;13.80;99.90;;;;;;5052125;28;20189;-67
2022/08/24 05:14:38;;;;;;;4.03;1.97;;;13.90;99.90;;;;;;5052553;28;21136;-67
2022/08/24 05:17:04;;;;;;;4.00;2.40;;;14.00;99.90;;;;;;5052639;28;20196;-67
2022/08/24 05:19:30;;;;;;;3.50;2.00;;;14.00;99.90;;;;;;5052261;28;20551;-67
2022/08/24 05:21:55;;;;;;;4.97;2.80;;;14.00;99.90;;;;;;5052094;28;20173;-67
2022/08/24 05:24:22;;;;;;;3.40;2.13;;;14.10;99.90;;;;;;5052301;28;20641;-67
2022/08/24 05:26:47;;;;;;;4.07;2.47;;;14.10;99.90;;;;;;5052659;28;20524;-67
2022/08/24 05:29:13;;;;;;;3.93;2.67;;;14.20;99.90;;;;;;5052285;28;20416;-68
2022/08/24 05:31:43;;;;;;;8.53;2.60;;;14.30;99.90;;;;;;5050749;28;20181;-67
2022/08/24 05:34:09;;;;;;;5.30;2.40;;;14.30;99.90;;;;;;5052270;28;20864;-67
2022/08/24 05:36:39;;;;;;;5.03;3.00;;;14.40;99.90;;;;;;5052305;28;20511;-67
2022/08/24 05:39:10;;;;;;;4.10;2.30;;;14.50;99.90;;;;;;5052291;28;20212;-67
2022/08/24 05:41:36;;;;;;;4.33;2.93;;;14.60;99.90;;;;;;5051927;28;20408;-67
2022/08/24 05:44:02;;;;;;;5.27;2.70;;;14.70;99.90;;;;;;5051997;28;20456;-67
2022/08/24 05:46:30;;;;;;;3.60;2.40;;;14.80;99.90;;;;;;5052192;28;20193;-67
2022/08/24 05:48:57;;;;;;;4.17;2.60;;;14.90;99.90;;;;;;5052248;28;20421;-67
2022/08/24 05:51:22;;;;;;;3.80;2.23;;;15.00;99.90;;;;;;5051482;28;20416;-67
2022/08/24 05:53:48;;;;;;;5.80;2.60;;;15.10;99.90;;;;;;5050543;28;20451;-67
2022/08/24 05:56:16;;;;;;;4.20;2.53;;;15.20;99.90;;;;;;5051944;28;20197;-67
2022/08/24 05:58:42;;;;;;;3.23;2.13;;;15.30;99.90;;;;;;5051879;28;20412;-67
2022/08/24 06:01:14;;;;;;;5.93;2.70;;;15.40;99.90;;;;;;5051412;28;20412;-67
2022/08/24 06:03:41;;;;;;;3.70;2.13;;;15.50;99.90;;;;;;5051485;28;20201;-67
2022/08/24 06:06:08;;;;;;;3.60;2.10;;;15.60;99.90;;;;;;5051787;28;20431;-68
2022/08/24 06:08:39;;;;;;;5.23;2.80;;;15.60;99.90;;;;;;5051728;28;20789;-67
2022/08/24 06:11:05;;;;;;;3.97;2.50;;;15.70;99.90;;;;;;5051181;28;20392;-67
2022/08/24 06:13:30;;;;;;;5.50;3.00;;;15.80;99.90;;;;;;5051976;28;20794;-67
2022/08/24 06:16:22;;;;;;;5.13;2.60;;;15.90;99.90;;;;;;5051927;28;20206;-67
2022/08/24 06:18:49;;;;;;;8.90;2.33;;;16.00;99.90;;;;;;5051663;28;20201;-67
2022/08/24 06:21:18;;;;;;;7.63;2.77;;;16.00;99.90;;;;;;5051272;28;20416;-67
2022/08/24 06:23:44;;;;;;;3.23;2.37;;;16.10;99.90;;;;;;5051543;28;20460;-68
2022/08/24 06:28:57;;;;;;;3.37;2.60;;;16.30;99.90;;;;;;5052358;28;20253;-67
2022/08/24 06:31:26;;;;;;;10.63;2.43;;;16.40;99.90;;;;;;5051301;28;20411;-67
2022/08/24 06:33:52;;;;;;;6.77;2.40;;;16.50;99.90;;;;;;5051412;28;20416;-68
2022/08/24 06:36:18;;;;;;;5.60;2.50;;;16.60;99.90;;;;;;5051692;28;20412;-67
2022/08/24 06:38:44;;;;;;;3.50;2.30;;;16.70;99.60;;;;;;5051546;28;20416;-68
2022/08/24 06:41:10;;;;;;;8.90;2.80;;;16.80;99.30;;;;;;5051116;28;20756;-68
2022/08/24 06:43:37;;;;;;;4.90;2.80;;;17.00;99.10;;;;;;5051599;28;20198;-68
2022/08/24 06:46:03;;;;;;;6.03;3.13;;;17.20;99.10;;;;;;5051413;28;20494;-67
2022/08/24 06:48:30;;;;;;;4.40;3.10;;;17.30;98.70;;;;;;5051721;28;20503;-68
2022/08/24 06:50:57;;;;;;;5.97;2.60;;;17.40;98.70;;;;;;5051179;28;20412;-67
2022/08/24 06:53:22;;;;;;;5.10;2.10;;;17.60;98.50;;;;;;5051238;28;20436;-67
2022/08/24 06:55:48;;;;;;;5.07;2.30;;;17.80;97.90;;;;;;5050372;28;20508;-67
2022/08/24 06:58:13;;;;;;;4.60;2.30;;;17.90;97.50;;;;;;5051342;28;20185;-67
2022/08/24 07:00:40;;;;;;;5.87;2.53;;;18.10;97.10;;;;;;5051097;28;20848;-67
2022/08/24 07:03:06;;;;;;;5.70;2.30;;;18.20;97.30;;;;;;5052174;28;20209;-67
2022/08/24 07:05:32;;;;;;;4.00;2.33;;;18.50;97.20;;;;;;5054987;28;20725;-68
2022/08/24 07:07:58;;;;;;;4.97;2.17;;;18.70;96.80;;;;;;5055015;28;20188;-68
2022/08/24 07:10:24;;;;;;;5.77;2.83;;;19.00;95.40;;;;;;5054759;28;20180;-67
2022/08/24 07:12:50;;;;;;;5.23;2.37;;;19.50;94.50;;;;;;5054411;28;20408;-67
2022/08/24 07:15:18;;;;;;;4.73;2.47;;;19.80;94.10;;;;;;5053295;28;20201;-68
2022/08/24 07:17:44;;;;;;;7.77;2.17;;;20.40;93.80;;;;;;5054888;28;20174;-68
2022/08/24 07:20:11;;;;;;;4.20;2.33;;;21.00;90.90;;;;;;5054682;28;20443;-68
2022/08/24 07:22:37;;;;;;;10.80;2.00;;;21.30;90.50;;;;;;5054087;28;20421;-68
2022/08/24 07:25:04;;;;;;;3.73;1.90;;;21.70;87.50;;;;;;5054514;28;20439;-67
2022/08/24 07:27:30;;;;;;;4.17;2.27;;;22.00;87.00;;;;;;5054648;28;20413;-68
2022/08/24 07:29:56;;;;;;;8.13;2.83;;;22.20;87.90;;;;;;5054386;28;20721;-68
2022/08/24 07:32:22;;;;;;;3.53;2.20;;;23.00;85.90;;;;;;5053041;28;20174;-69
2022/08/24 07:34:48;;;;;;;3.40;2.13;;;23.80;83.00;;;;;;5054400;28;20618;-68
2022/08/24 07:37:13;;;;;;;9.87;3.20;;;25.40;77.60;;;;;;5054347;28;20173;-68
2022/08/24 07:39:39;;;;;;;3.40;2.00;;;26.40;73.60;;;;;;5054408;28;20173;-68
2022/08/24 07:42:05;;;;;;;5.17;1.90;;;27.00;71.40;;;;;;5053837;28;20178;-68
2022/08/24 07:44:31;;;;;;;6.27;1.60;;;27.80;68.00;;;;;;5054546;28;20226;-69
2022/08/24 07:46:57;;;;;;;5.60;1.75;;;28.40;64.20;;;;;;5054391;28;20255;-69
2022/08/24 07:49:23;;;;;;;2.55;1.50;;;28.20;63.80;;;;;;5054524;28;20256;-69
2022/08/24 07:51:52;;;;;;;4.03;2.20;;;28.30;61.70;;;;;;5053824;28;20177;-69
2022/08/24 07:54:18;;;;;;;3.67;2.15;;;28.10;62.60;;;;;;5054531;28;20173;-69
2022/08/24 07:56:44;;;;;;;2.60;1.50;;;28.00;62.60;;;;;;5054286;28;20238;-69
2022/08/24 07:59:10;;;;;;;3.45;1.50;;;27.70;63.70;;;;;;5054493;28;20618;-69
2022/08/24 08:01:35;;;;;;;9.57;2.05;;;27.70;63.50;;;;;;5054058;28;20173;-69
2022/08/24 08:04:01;;;;;;;8.50;1.70;;;27.70;63.30;;;;;;5054205;28;20213;-69
2022/08/24 08:06:27;;;;;;;6.53;1.73;;;27.30;64.30;;;;;;5054241;28;20173;-69
2022/08/24 08:08:52;;;;;;;8.73;2.38;;;27.30;65.00;;;;;;5054486;28;20174;-69
2022/08/24 08:11:18;;;;;;;3.38;1.70;;;27.70;64.60;;;;;;5053526;28;20599;-69
2022/08/24 08:13:44;;;;;;;3.45;1.85;;;28.00;62.30;;;;;;5061826;28;20169;-70
2022/08/24 08:16:10;;;;;;;3.40;1.70;;;28.40;61.20;;;;;;5065233;28;20184;-69
2022/08/24 08:18:36;;;;;;;2.53;1.48;;;28.00;60.50;;;;;;5065669;28;20229;-69
2022/08/24 08:21:03;;;;;;;4.22;1.38;;;28.10;60.50;;;;;;5066554;28;20186;-69
2022/08/24 08:26:20;;;;;;;2.42;1.25;;;28.40;59.90;;;;;;5066954;28;20196;-69
2022/08/24 08:28:46;;;;;;;4.50;1.50;;;28.30;59.30;;;;;;5066599;28;20158;-69
2022/08/24 08:31:12;;;;;;;4.55;1.75;;;27.80;60.70;;;;;;5056321;28;20169;-70
2022/08/24 08:33:37;;;;;;;4.55;1.98;;;28.10;61.00;;;;;;5054428;28;20184;-70
2022/08/24 08:36:09;;;;;;;4.53;1.80;;;29.30;58.30;;;;;;5054738;28;20170;-69
2022/08/24 08:38:35;;;;;;;3.03;1.35;;;29.60;58.40;;;;;;5053592;28;20177;-70
2022/08/24 08:41:18;;;;;;;4.90;1.10;;;29.70;57.50;;;;;;5052938;28;20931;-70
2022/08/24 08:43:59;;;;;;;8.55;2.10;;;29.60;57.70;;;;;;5053232;28;20215;-70
2022/08/24 08:46:48;;;;;;;3.83;1.90;;;29.40;59.50;;;;;;5053105;28;20150;-70
2022/08/24 08:49:41;;;;;;;3.28;1.40;;;29.40;59.00;;;;;;5052963;28;20168;-69
2022/08/24 08:52:29;;;;;;;6.28;2.10;;;30.10;57.30;;;;;;5052636;28;20181;-70
2022/08/24 08:55:13;;;;;;;3.70;1.80;;;29.90;58.10;;;;;;5052988;28;20287;-70
2022/08/24 08:58:10;;;;;;;2.17;1.15;;;29.60;59.00;;;;;;5052625;28;20184;-70
2022/08/24 09:01:02;;;;;;;3.28;1.85;;;30.40;56.20;;;;;;5052876;28;20162;-70
2022/08/24 09:03:35;;;;;;;14.30;2.08;;;30.70;55.50;;;;;;5051490;28;20214;-69
2022/08/24 09:06:10;;;;;;;3.22;1.60;;;30.10;55.40;;;;;;5052718;28;20568;-69
2022/08/24 09:08:59;;;;;;;5.60;1.67;;;30.00;55.60;;;;;;5052727;28;20164;-70
2022/08/24 09:11:42;;;;;;;3.53;1.50;;;30.00;55.50;;;;;;5052137;28;20173;-70
2022/08/24 09:14:39;;;;;;;6.85;1.88;;;30.60;52.60;;;;;;5052541;28;20684;-69
2022/08/24 09:17:27;;;;;;;3.42;1.80;;;30.00;53.70;;;;;;5050310;28;20304;-70
2022/08/24 09:19:53;;;;;;;6.40;1.13;;;30.30;52.50;;;;;;5052778;28;20174;-69
2022/08/24 09:22:20;;;;;;;4.50;1.40;;;30.50;51.70;;;;;;5052554;28;20264;-70
2022/08/24 09:25:29;;;;;;;2.40;1.25;;;30.40;52.10;;;;;;5052643;28;20197;-70
2022/08/24 09:28:10;;;;;;;4.18;1.20;;;30.20;52.10;;;;;;5051842;28;20642;-70
2022/08/24 09:30:57;;;;;;;2.55;1.35;;;30.30;51.10;;;;;;5052589;28;20174;-70
2022/08/24 09:33:51;;;;;;;2.40;1.10;;;30.20;51.80;;;;;;5051751;28;20674;-70
2022/08/24 09:36:43;;;;;;;3.05;1.00;;;29.50;52.70;;;;;;5052221;28;20555;-71
2022/08/24 09:39:13;;;;;;;1.90;0.82;;;29.80;51.60;;;;;;5051185;28;20292;-70
2022/08/24 09:42:03;;;;;;;3.70;1.17;;;29.70;51.80;;;;;;5051947;28;20169;-69
2022/08/24 09:44:46;;;;;;;3.45;1.35;;;29.90;51.00;;;;;;5052376;28;20279;-70
2022/08/24 09:47:23;;;;;;;4.10;1.27;;;29.90;50.60;;;;;;5052189;28;20173;-70
2022/08/24 09:50:01;;;;;;;3.72;1.50;;;29.20;52.10;;;;;;5052226;28;20256;-70
2022/08/24 09:52:41;;;;;;;2.40;1.17;;;29.00;53.10;;;;;;5051455;28;20302;-69
2022/08/24 09:55:07;;;;;;;2.53;1.00;;;28.80;52.70;;;;;;5052194;28;20179;-69
2022/08/24 09:58:11;;;;;;;5.25;1.17;;;28.90;52.30;;;;;;5052031;28;20177;-69
2022/08/24 10:00:48;;;;;;;2.00;1.08;;;29.10;52.10;;;;;;5052026;28;20165;-69
2022/08/24 10:03:36;;;;;;;2.15;1.08;;;29.60;50.80;;;;;;5051389;28;20200;-70
2022/08/24 10:06:14;;;;;;;1.75;0.82;;;28.90;52.40;;;;;;5052025;28;20162;-70
2022/08/24 10:09:00;;;;;;;3.45;1.13;;;28.70;53.40;;;;;;5051868;28;20203;-69
2022/08/24 10:12:02;;;;;;;2.28;1.05;;;28.40;53.50;;;;;;5051421;28;20211;-69
2022/08/24 10:15:05;;;;;;;2.47;1.00;;;28.60;53.10;;;;;;5052157;28;20716;-70
2022/08/24 10:17:36;;;;;;;1.90;0.90;;;28.70;53.80;;;;;;5051659;28;20263;-69
2022/08/24 10:20:02;;;;;;;3.10;1.00;;;28.10;53.30;;;;;;5051747;28;20174;-69
2022/08/24 10:22:48;;;;;;;1.70;0.83;;;28.00;53.40;;;;;;5051220;28;20174;-69
2022/08/24 10:25:31;;;;;;;2.67;1.20;;;28.00;53.40;;;;;;5051677;28;20177;-69
2022/08/24 10:28:19;;;;;;;2.70;1.10;;;27.80;54.50;;;;;;5051502;28;20173;-69
2022/08/24 10:31:08;;;;;;;18.13;2.10;;;28.10;51.70;;;;;;5051795;28;20202;-69
2022/08/24 10:33:46;;;;;;;2.03;0.87;;;27.90;53.10;;;;;;5050615;28;20583;-69
2022/08/24 10:36:23;;;;;;;1.90;0.90;;;27.80;54.70;;;;;;5051721;28;20177;-69
2022/08/24 10:45:20;;;;;;;2.63;1.27;;;28.10;54.60;;;;;;5055523;28;20223;-70
2022/08/24 10:48:16;;;;;;;2.47;1.37;;;28.00;53.90;;;;;;5055496;28;20250;-69
2022/08/24 10:50:58;;;;;;;2.70;1.30;;;28.30;54.60;;;;;;5055461;28;20165;-69
2022/08/24 10:53:24;;;;;;;7.00;1.67;;;28.00;54.50;;;;;;5055165;28;20195;-70
2022/08/24 10:56:12;;;;;;;3.13;1.47;;;28.10;54.70;;;;;;5055557;28;20256;-69
2022/08/24 10:59:02;;;;;;;3.40;1.20;;;28.30;54.50;;;;;;5055092;28;20183;-69
2022/08/24 11:01:32;;;;;;;3.07;1.50;;;28.30;54.80;;;;;;5054790;28;20205;-69
2022/08/24 11:04:09;;;;;;;2.97;1.00;;;28.40;55.20;;;;;;5054882;28;20200;-69
2022/08/24 11:06:34;;;;;;;3.67;1.40;;;28.50;55.00;;;;;;5055220;28;20180;-69
2022/08/24 11:09:05;;;;;;;2.37;1.33;;;28.50;53.70;;;;;;5054981;28;20181;-70
2022/08/24 11:11:37;;;;;;;2.10;1.10;;;28.60;53.40;;;;;;5054557;28;20242;-69
2022/08/24 11:14:07;;;;;;;2.23;1.30;;;28.60;53.70;;;;;;5054709;28;20177;-70
2022/08/24 11:16:39;;;;;;;2.63;1.30;;;28.60;53.40;;;;;;5054907;28;20656;-69
2022/08/24 11:19:30;;;;;;;1.97;1.07;;;28.30;54.60;;;;;;5054824;28;20236;-69
2022/08/24 11:22:02;;;;;;;1.97;1.20;;;28.40;54.80;;;;;;5054306;28;20670;-70
2022/08/24 11:24:46;;;;;;;4.27;1.00;;;28.50;55.90;;;;;;5054637;28;20209;-68
2022/08/24 11:27:35;;;;;;;2.20;1.03;;;28.60;54.50;;;;;;5054613;28;20508;-69
2022/08/24 11:30:30;;;;;;;3.80;1.60;;;28.80;54.50;;;;;;5054480;28;20173;-68
2022/08/24 11:33:03;;;;;;;2.30;1.40;;;28.90;54.10;;;;;;5052395;28;20191;-69
2022/08/24 11:35:32;;;;;;;2.70;1.30;;;28.60;54.50;;;;;;5054640;28;20244;-68
2022/08/24 11:38:13;;;;;;;2.70;1.20;;;28.70;54.00;;;;;;5054476;28;20168;-68
2022/08/24 11:40:49;;;;;;;3.20;1.30;;;28.90;54.10;;;;;;5054495;28;20191;-68
2022/08/24 11:43:21;;;;;;;2.50;1.13;;;28.90;53.00;;;;;;5054100;28;20197;-69
2022/08/24 11:45:52;;;;;;;4.17;1.53;;;29.10;51.90;;;;;;5054383;28;20181;-69
2022/08/24 11:48:37;;;;;;;2.90;1.20;;;29.20;51.80;;;;;;5053869;28;20174;-69
2022/08/24 11:51:30;;;;;;;2.73;1.00;;;29.20;51.60;;;;;;5033973;28;20561;-68
2022/08/24 11:54:23;;;;;;;2.00;0.80;;;29.00;51.50;;;;;;5034232;28;20189;-69
2022/08/24 11:57:11;;;;;;;2.70;0.97;;;28.90;51.50;;;;;;5045511;28;20238;-69
2022/08/24 12:00:04;;;;;;;2.70;1.30;;;29.10;52.10;;;;;;5054005;28;20182;-69
2022/08/24 12:03:01;;;;;;;3.47;1.27;;;29.00;52.30;;;;;;5053789;28;20598;-69
2022/08/24 12:05:48;;;;;;;4.27;1.53;;;28.90;52.80;;;;;;5054195;28;20181;-69
2022/08/24 12:08:33;;;;;;;5.10;1.00;;;28.90;52.90;;;;;;5053881;28;20182;-69
2022/08/24 12:10:59;;;;;;;2.00;1.00;;;29.00;52.70;;;;;;5053644;28;20162;-69
2022/08/24 12:13:46;;;;;;;2.47;1.15;;;29.30;52.00;;;;;;5053862;28;20597;-69
2022/08/24 12:16:20;;;;;;;2.15;0.95;;;29.40;52.30;;;;;;5053947;28;20236;-70
2022/08/24 12:18:56;;;;;;;2.08;1.00;;;29.30;52.30;;;;;;5053936;28;20168;-69
2022/08/24 12:21:27;;;;;;;3.73;1.50;;;29.20;52.30;;;;;;5053540;28;20181;-69
2022/08/24 12:24:03;;;;;;;2.00;0.95;;;29.50;51.80;;;;;;5053733;28;20197;-70
2022/08/24 12:26:36;;;;;;;3.40;1.30;;;29.40;52.10;;;;;;5054139;28;20223;-69
2022/08/24 12:29:23;;;;;;;3.58;1.00;;;29.50;51.30;;;;;;5053772;28;20173;-69
2022/08/24 12:31:54;;;;;;;5.20;1.35;;;29.40;51.80;;;;;;5052504;28;20512;-69
2022/08/24 12:34:43;;;;;;;4.47;1.20;;;29.50;51.30;;;;;;5053804;28;20178;-69
2022/08/24 12:37:20;;;;;;;2.58;1.30;;;29.30;51.30;;;;;;5053644;28;20215;-69
2022/08/24 12:40:00;;;;;;;5.43;1.33;;;29.50;51.50;;;;;;5053524;28;20216;-69
2022/08/24 12:42:40;;;;;;;2.80;1.25;;;29.80;51.20;;;;;;5052983;28;20161;-69
2022/08/24 12:45:11;;;;;;;2.72;1.08;;;29.60;51.30;;;;;;5053157;28;20235;-70
2022/08/24 12:47:52;;;;;;;3.88;0.85;;;30.00;49.70;;;;;;5053303;28;20244;-69
2022/08/24 12:50:43;;;;;;;1.60;0.80;;;30.00;49.10;;;;;;5053135;28;20169;-69
2022/08/24 12:53:23;;;;;;;2.45;1.08;;;29.60;49.00;;;;;;5052825;28;20542;-69
2022/08/24 12:56:44;;;;;;;2.42;1.10;;;29.80;49.70;;;;;;5053041;28;20169;-69
2022/08/24 12:59:19;;;;;;;1.95;0.88;;;30.10;49.40;;;;;;5033318;28;20200;-69
2022/08/24 13:01:55;;;;;;;7.38;1.00;;;30.30;48.10;;;;;;5051850;28;20177;-69
2022/08/24 13:04:27;;;;;;;2.35;0.80;;;30.40;47.80;;;;;;5052860;28;20193;-69
2022/08/24 13:07:08;;;;;;;2.75;1.30;;;30.10;48.30;;;;;;5052914;28;20173;-69
2022/08/24 13:09:35;;;;;;;8.13;1.10;;;29.70;47.90;;;;;;5052764;28;20215;-70
2022/08/24 13:12:30;;;;;;;1.95;0.90;;;29.60;48.20;;;;;;5052575;28;20170;-70
2022/08/24 13:15:29;;;;;;;4.72;1.20;;;30.00;48.40;;;;;;5050038;28;20193;-69
2022/08/24 13:17:59;;;;;;;1.98;1.00;;;30.30;48.50;;;;;;5052765;28;20169;-69
2022/08/24 13:20:48;;;;;;;2.88;1.02;;;30.30;46.90;;;;;;5052652;28;20655;-69
2022/08/24 13:23:23;;;;;;;1.90;0.73;;;30.30;46.40;;;;;;5052071;28;20220;-69